createdAt,value
2018-03-30T00:01:34.443Z,22.63
2018-03-30T00:04:02.814Z,28.47
2018-03-30T00:06:31.134Z,25.40
2018-03-30T00:08:59.528Z,22.63
2018-03-30T00:11:28.784Z,23.87
2018-03-30T00:13:57.133Z,23.03
2018-03-30T00:16:25.537Z,24.73
2018-03-30T00:18:53.941Z,23.63
2018-03-30T00:21:22.283Z,23.63
2018-03-30T00:23:50.601Z,21.27
2018-03-30T00:26:18.973Z,24.20
2018-03-30T00:28:47.297Z,22.27
2018-03-30T00:31:15.689Z,22.40
2018-03-30T00:33:44.022Z,23.17
2018-03-30T00:36:12.349Z,23.50
2018-03-30T00:38:40.696Z,22.87
2018-03-30T00:41:09.019Z,21.53
2018-03-30T00:43:37.432Z,23.10
2018-03-30T00:46:05.850Z,22.70
2018-03-30T00:48:34.363Z,22.73
2018-03-30T00:51:02.851Z,20.80
2018-03-30T00:53:54.035Z,20.47
2018-03-30T00:56:22.387Z,22.83
2018-03-30T00:58:50.802Z,23.43
2018-03-30T01:01:19.114Z,20.97
2018-03-30T01:03:47.461Z,21.27
2018-03-30T01:06:15.819Z,21.03
2018-03-30T01:08:44.231Z,22.83
2018-03-30T01:11:12.563Z,20.43
2018-03-30T01:13:40.952Z,20.43
2018-03-30T01:16:09.393Z,20.37
2018-03-30T01:18:37.750Z,19.23
2018-03-30T01:21:06.082Z,18.83
2018-03-30T01:23:34.412Z,20.90
2018-03-30T01:26:03.645Z,18.63
2018-03-30T01:28:32.053Z,19.83
2018-03-30T01:31:00.466Z,19.30
2018-03-30T01:33:28.842Z,19.53
2018-03-30T01:35:57.183Z,18.37
2018-03-30T01:38:25.549Z,17.63
2018-03-30T01:40:53.941Z,18.17
2018-03-30T01:43:22.311Z,17.00
2018-03-30T01:45:50.627Z,18.60
2018-03-30T01:48:19.002Z,18.07
2018-03-30T01:50:47.334Z,18.67
2018-03-30T01:53:15.671Z,18.97
2018-03-30T01:55:44.000Z,17.33
2018-03-30T01:58:12.375Z,17.03
2018-03-30T02:00:40.788Z,18.07
2018-03-30T02:03:09.123Z,18.87
2018-03-30T02:05:37.553Z,17.80
2018-03-30T02:08:05.970Z,17.57
2018-03-30T02:10:34.309Z,17.23
2018-03-30T02:13:02.646Z,16.23
2018-03-30T02:15:30.996Z,16.57
2018-03-30T02:17:59.410Z,15.20
2018-03-30T02:20:27.797Z,17.07
2018-03-30T02:22:56.105Z,14.83
2018-03-30T02:25:24.439Z,15.80
2018-03-30T02:27:52.761Z,16.57
2018-03-30T02:30:21.104Z,15.53
2018-03-30T02:32:49.471Z,14.40
2018-03-30T02:35:17.814Z,13.27
2018-03-30T02:37:46.115Z,16.40
2018-03-30T02:40:14.516Z,16.67
2018-03-30T02:42:42.826Z,15.10
2018-03-30T02:45:11.181Z,16.77
2018-03-30T02:47:39.526Z,17.30
2018-03-30T02:52:59.818Z,15.23
2018-03-30T02:55:28.154Z,16.03
2018-03-30T02:57:56.524Z,16.87
2018-03-30T03:00:24.929Z,17.87
2018-03-30T03:02:53.295Z,17.03
2018-03-30T03:05:21.623Z,15.80
2018-03-30T03:07:49.952Z,15.37
2018-03-30T03:10:18.424Z,17.47
2018-03-30T03:12:46.744Z,16.20
2018-03-30T03:15:15.044Z,16.40
2018-03-30T03:17:43.429Z,16.43
2018-03-30T03:20:11.837Z,14.57
2018-03-30T03:22:40.166Z,14.23
2018-03-30T03:25:08.496Z,13.93
2018-03-30T03:27:36.922Z,13.70
2018-03-30T03:30:05.330Z,14.90
2018-03-30T03:32:33.656Z,13.73
2018-03-30T03:35:01.979Z,13.97
2018-03-30T03:37:30.356Z,13.90
2018-03-30T03:39:58.676Z,14.57
2018-03-30T03:42:27.033Z,16.10
2018-03-30T03:44:55.355Z,13.90
2018-03-30T03:47:23.757Z,14.83
2018-03-30T03:49:52.076Z,13.53
2018-03-30T03:52:20.405Z,14.37
2018-03-30T03:54:48.733Z,14.93
2018-03-30T03:57:17.075Z,14.30
2018-03-30T03:59:45.391Z,12.73
2018-03-30T04:02:13.759Z,13.07
2018-03-30T04:04:42.094Z,13.50
2018-03-30T04:07:10.518Z,14.53
2018-03-30T04:09:38.861Z,13.57
2018-03-30T04:12:07.234Z,13.27
2018-03-30T04:14:35.676Z,12.87
2018-03-30T04:17:04.001Z,12.27
2018-03-30T04:19:32.360Z,13.10
2018-03-30T04:22:00.667Z,13.87
2018-03-30T04:24:29.013Z,13.13
2018-03-30T04:26:57.354Z,14.03
2018-03-30T04:29:25.711Z,13.43
2018-03-30T04:31:54.102Z,13.53
2018-03-30T04:34:22.492Z,12.63
2018-03-30T04:36:50.888Z,14.47
2018-03-30T04:39:19.238Z,13.43
2018-03-30T04:41:47.732Z,12.20
2018-03-30T04:44:16.252Z,13.03
2018-03-30T04:46:44.627Z,12.23
2018-03-30T04:49:13.075Z,14.63
2018-03-30T04:51:41.407Z,12.57
2018-03-30T04:54:09.831Z,14.70
2018-03-30T04:56:38.204Z,12.27
2018-03-30T04:59:06.547Z,12.20
2018-03-30T05:01:34.860Z,11.87
2018-03-30T05:04:03.190Z,12.43
2018-03-30T05:06:31.604Z,12.43
2018-03-30T05:08:59.957Z,12.10
2018-03-30T05:11:28.262Z,12.70
2018-03-30T05:13:56.649Z,12.37
2018-03-30T05:16:24.972Z,12.30
2018-03-30T05:18:53.304Z,11.77
2018-03-30T05:21:21.658Z,12.07
2018-03-30T05:23:49.983Z,11.33
2018-03-30T05:26:18.324Z,12.47
2018-03-30T05:28:46.725Z,11.97
2018-03-30T05:31:15.073Z,11.00
2018-03-30T05:33:43.409Z,12.67
2018-03-30T05:36:11.756Z,11.13
2018-03-30T05:38:40.080Z,12.67
2018-03-30T05:41:08.401Z,11.83
2018-03-30T05:43:38.863Z,12.30
2018-03-30T05:46:07.219Z,10.50
2018-03-30T05:48:35.542Z,11.80
2018-03-30T05:51:03.877Z,12.10
2018-03-30T05:53:32.664Z,11.67
2018-03-30T05:56:00.991Z,11.63
2018-03-30T05:58:29.352Z,11.27
2018-03-30T06:00:57.715Z,10.57
2018-03-30T06:03:26.052Z,10.67
2018-03-30T06:05:54.445Z,9.97
2018-03-30T06:08:22.755Z,11.03
2018-03-30T06:10:51.087Z,10.53
2018-03-30T06:13:19.405Z,11.83
2018-03-30T06:15:47.822Z,10.07
2018-03-30T06:18:16.164Z,9.87
2018-03-30T06:20:44.492Z,10.03
2018-03-30T06:23:12.878Z,11.03
2018-03-30T06:25:42.586Z,11.40
2018-03-30T06:28:10.916Z,11.70
2018-03-30T06:30:39.575Z,11.90
2018-03-30T06:33:07.918Z,10.57
2018-03-30T06:35:36.795Z,9.97
2018-03-30T06:38:05.174Z,10.87
2018-03-30T06:40:33.517Z,10.30
2018-03-30T06:43:01.870Z,10.30
2018-03-30T06:45:31.322Z,11.47
2018-03-30T06:47:59.646Z,11.87
2018-03-30T06:50:27.958Z,11.83
2018-03-30T06:52:56.298Z,11.90
2018-03-30T06:55:24.613Z,12.30
2018-03-30T06:57:52.944Z,13.40
2018-03-30T07:00:21.515Z,12.07
2018-03-30T07:02:49.932Z,11.47
2018-03-30T07:05:18.250Z,11.93
2018-03-30T07:07:46.667Z,11.10
2018-03-30T07:10:15.100Z,11.07
2018-03-30T07:12:43.547Z,11.73
2018-03-30T07:15:11.941Z,10.57
2018-03-30T07:17:40.241Z,11.73
2018-03-30T07:20:09.624Z,11.37
2018-03-30T07:22:38.037Z,12.43
2018-03-30T07:25:06.359Z,11.60
2018-03-30T07:27:34.737Z,11.23
2018-03-30T07:30:03.219Z,12.97
2018-03-30T07:32:31.550Z,12.20
2018-03-30T07:34:59.863Z,10.20
2018-03-30T07:37:28.202Z,10.90
2018-03-30T07:39:56.521Z,10.63
2018-03-30T07:42:24.984Z,11.50
2018-03-30T07:44:53.446Z,11.97
2018-03-30T07:47:22.812Z,11.77
2018-03-30T07:49:51.170Z,12.77
2018-03-30T07:52:19.502Z,10.43
2018-03-30T07:54:48.149Z,11.67
2018-03-30T07:57:16.479Z,11.63
2018-03-30T07:59:44.859Z,11.60
2018-03-30T08:02:13.291Z,11.67
2018-03-30T08:04:41.663Z,11.87
2018-03-30T08:07:10.204Z,10.13
2018-03-30T08:09:38.586Z,9.67
2018-03-30T08:12:06.996Z,11.70
2018-03-30T08:14:35.339Z,10.97
2018-03-30T08:17:03.692Z,11.30
2018-03-30T08:19:32.133Z,10.80
2018-03-30T08:22:00.488Z,10.53
2018-03-30T08:24:28.892Z,12.23
2018-03-30T08:26:57.455Z,10.67
2018-03-30T08:29:25.824Z,9.83
2018-03-30T08:31:54.192Z,11.87
2018-03-30T08:34:22.630Z,10.63
2018-03-30T08:36:50.966Z,10.57
2018-03-30T08:39:19.296Z,11.23
2018-03-30T08:41:48.161Z,11.00
2018-03-30T08:44:16.520Z,9.53
2018-03-30T08:46:44.961Z,10.13
2018-03-30T08:49:13.378Z,9.20
2018-03-30T08:51:41.719Z,9.77
2018-03-30T08:54:10.039Z,9.77
2018-03-30T08:56:38.375Z,9.03
2018-03-30T08:59:06.756Z,9.73
2018-03-30T09:01:35.203Z,10.87
2018-03-30T09:04:03.927Z,11.27
2018-03-30T09:06:32.641Z,9.77
2018-03-30T09:09:00.965Z,9.43
2018-03-30T09:11:29.319Z,9.63
2018-03-30T09:13:57.668Z,8.70
2018-03-30T09:16:26.003Z,8.37
2018-03-30T09:18:54.314Z,8.23
2018-03-30T09:21:22.657Z,7.17
2018-03-30T09:23:50.996Z,6.60
2018-03-30T09:26:19.377Z,7.47
2018-03-30T09:28:47.708Z,5.97
2018-03-30T09:31:16.054Z,5.53
2018-03-30T09:33:44.421Z,5.90
2018-03-30T09:36:13.036Z,5.90
2018-03-30T09:38:43.274Z,5.77
2018-03-30T09:41:11.619Z,5.33
2018-03-30T09:43:42.042Z,5.53
2018-03-30T09:46:10.639Z,5.70
2018-03-30T09:48:39.139Z,5.93
2018-03-30T09:51:07.572Z,5.70
2018-03-30T09:53:36.104Z,5.43
2018-03-30T09:56:04.405Z,6.03
2018-03-30T09:58:32.802Z,6.30
2018-03-30T10:01:01.888Z,5.97
2018-03-30T10:03:30.220Z,6.07
2018-03-30T10:05:58.590Z,5.40
2018-03-30T10:08:26.936Z,7.03
2018-03-30T10:10:55.265Z,6.67
2018-03-30T10:13:23.821Z,5.97
2018-03-30T10:15:52.182Z,6.70
2018-03-30T10:18:20.696Z,7.33
2018-03-30T10:20:49.058Z,5.87
2018-03-30T10:23:17.412Z,7.37
2018-03-30T10:25:45.774Z,6.13
2018-03-30T10:28:14.126Z,7.40
2018-03-30T10:30:42.450Z,7.07
2018-03-30T10:33:10.857Z,6.63
2018-03-30T10:35:39.185Z,7.77
2018-03-30T10:38:07.527Z,8.03
2018-03-30T10:40:35.837Z,8.03
2018-03-30T10:43:04.166Z,8.63
2018-03-30T10:45:32.519Z,9.20
2018-03-30T10:48:00.968Z,7.53
2018-03-30T10:50:29.301Z,8.83
2018-03-30T10:52:57.650Z,8.73
2018-03-30T10:55:26.108Z,9.63
2018-03-30T10:57:55.331Z,8.87
2018-03-30T11:00:23.668Z,8.43
2018-03-30T11:02:51.992Z,9.30
2018-03-30T11:05:20.337Z,9.70
2018-03-30T11:07:48.742Z,9.63
2018-03-30T11:10:17.114Z,9.10
2018-03-30T11:12:45.436Z,9.40
2018-03-30T11:15:13.821Z,10.90
2018-03-30T11:17:42.144Z,9.37
2018-03-30T11:20:10.483Z,9.53
2018-03-30T11:22:38.805Z,9.67
2018-03-30T11:25:07.180Z,10.40
2018-03-30T11:27:35.504Z,9.17
2018-03-30T11:30:03.851Z,10.80
2018-03-30T11:32:32.233Z,11.10
2018-03-30T11:35:00.557Z,10.63
2018-03-30T11:37:29.028Z,10.00
2018-03-30T11:39:57.408Z,10.07
2018-03-30T11:42:25.815Z,10.67
2018-03-30T11:44:54.143Z,11.23
2018-03-30T11:47:22.487Z,11.33
2018-03-30T11:49:50.804Z,10.47
2018-03-30T11:52:19.140Z,11.47
2018-03-30T11:54:47.459Z,11.00
2018-03-30T11:57:15.910Z,11.27
2018-03-30T11:59:44.330Z,11.97
2018-03-30T12:02:12.691Z,10.77
2018-03-30T12:04:41.040Z,10.87
2018-03-30T12:07:09.368Z,10.97
2018-03-30T12:09:37.692Z,9.50
2018-03-30T12:12:06.088Z,10.20
2018-03-30T12:14:34.404Z,9.20
2018-03-30T12:17:02.765Z,9.87
2018-03-30T12:19:31.107Z,9.30
2018-03-30T12:21:59.464Z,8.50
2018-03-30T12:24:27.797Z,9.87
2018-03-30T12:26:56.175Z,9.93
2018-03-30T12:29:24.473Z,8.90
2018-03-30T12:31:52.786Z,9.50
2018-03-30T12:34:21.229Z,9.53
2018-03-30T12:36:49.540Z,9.67
2018-03-30T12:39:17.910Z,9.30
2018-03-30T12:41:46.223Z,10.37
2018-03-30T12:44:14.645Z,8.67
2018-03-30T12:46:42.959Z,10.10
2018-03-30T12:49:11.573Z,9.27
2018-03-30T12:51:39.888Z,8.30
2018-03-30T12:54:08.364Z,8.00
2018-03-30T12:56:36.697Z,9.10
2018-03-30T12:59:05.019Z,8.63
2018-03-30T13:01:33.316Z,8.33
2018-03-30T13:04:01.655Z,8.80
2018-03-30T13:06:29.969Z,8.53
2018-03-30T13:08:58.291Z,8.90
2018-03-30T13:11:26.598Z,8.53
2018-03-30T13:13:54.970Z,9.77
2018-03-30T13:16:23.308Z,7.47
2018-03-30T13:18:51.633Z,9.43
2018-03-30T13:21:19.994Z,8.50
2018-03-30T13:23:48.288Z,8.40
2018-03-30T13:26:16.612Z,8.43
2018-03-30T13:28:44.929Z,8.60
2018-03-30T13:31:13.280Z,9.53
2018-03-30T13:33:41.587Z,9.10
2018-03-30T13:36:09.952Z,8.27
2018-03-30T13:38:38.272Z,9.47
2018-03-30T13:41:06.603Z,8.50
2018-03-30T13:43:34.926Z,7.43
2018-03-30T13:46:03.252Z,7.70
2018-03-30T13:48:31.613Z,7.93
2018-03-30T13:51:17.526Z,8.37
2018-03-30T13:54:03.267Z,7.63
2018-03-30T13:56:46.472Z,8.27
2018-03-30T13:59:15.614Z,7.90
2018-03-30T14:01:50.512Z,8.53
2018-03-30T14:04:25.429Z,6.90
2018-03-30T14:06:54.713Z,7.87
2018-03-30T14:09:25.824Z,7.37
2018-03-30T14:12:06.412Z,6.47
2018-03-30T14:14:34.730Z,8.13
2018-03-30T14:17:20.600Z,8.27
2018-03-30T14:19:49.832Z,7.40
2018-03-30T14:25:24.953Z,6.60
2018-03-30T14:27:57.745Z,6.73
2018-03-30T14:30:39.784Z,6.83
2018-03-30T14:33:09.965Z,6.57
2018-03-30T14:35:39.977Z,6.97
2018-03-30T14:38:18.957Z,7.10
2018-03-30T14:40:48.069Z,7.13
2018-03-30T14:43:17.230Z,6.40
2018-03-30T14:48:52.625Z,6.47
2018-03-30T14:51:25.531Z,6.10
2018-03-30T14:53:56.500Z,5.70
2018-03-30T14:56:25.584Z,6.07
2018-03-30T14:58:54.668Z,6.70
2018-03-30T15:01:24.397Z,5.90
2018-03-30T15:03:55.235Z,5.87
2018-03-30T15:09:26.722Z,5.00
2018-03-30T15:12:06.459Z,6.20
2018-03-30T15:14:35.530Z,5.27
2018-03-30T15:17:08.841Z,4.80
2018-03-30T15:19:52.198Z,5.10
2018-03-30T15:22:27.116Z,4.97
2018-03-30T15:24:58.088Z,5.30
2018-03-30T15:27:28.243Z,5.70
2018-03-30T15:33:10.149Z,5.63
2018-03-30T15:35:42.961Z,5.33
2018-03-30T15:38:11.391Z,5.43
2018-03-30T15:40:39.710Z,5.20
2018-03-30T15:43:09.508Z,5.53
2018-03-30T15:45:44.606Z,5.60
2018-03-30T15:48:13.229Z,5.50
2018-03-30T15:50:41.636Z,5.67
2018-03-30T15:53:17.683Z,5.40
2018-03-30T15:55:46.843Z,6.40
2018-03-30T15:58:15.155Z,6.83
2018-03-30T16:00:43.531Z,6.93
2018-03-30T16:03:11.951Z,7.37
2018-03-30T16:05:40.313Z,6.73
2018-03-30T16:08:10.042Z,7.27
2018-03-30T16:10:41.089Z,6.17
2018-03-30T16:13:09.439Z,6.23
2018-03-30T16:15:37.764Z,7.40
2018-03-30T16:18:06.226Z,5.70
2018-03-30T16:20:34.613Z,6.30
2018-03-30T16:23:02.601Z,5.30
2018-03-30T16:25:30.777Z,6.60
2018-03-30T16:27:59.019Z,7.80
2018-03-30T16:30:27.255Z,6.07
2018-03-30T16:32:55.596Z,6.53
2018-03-30T16:35:23.513Z,6.33
2018-03-30T16:37:51.532Z,7.00
2018-03-30T16:40:19.495Z,6.13
2018-03-30T16:42:48.434Z,6.93
2018-03-30T16:45:17.173Z,6.33
2018-03-30T16:47:45.205Z,6.53
2018-03-30T16:50:13.281Z,6.80
2018-03-30T16:52:41.152Z,7.20
2018-03-30T16:55:09.009Z,7.27
2018-03-30T16:57:37.153Z,7.60
2018-03-30T17:00:06.878Z,7.43
2018-03-30T17:02:34.850Z,6.93
2018-03-30T17:05:02.918Z,6.97
2018-03-30T17:07:31.723Z,7.20
2018-03-30T17:09:59.727Z,8.00
2018-03-30T17:12:27.744Z,7.07
2018-03-30T17:14:55.591Z,6.37
2018-03-30T17:17:23.870Z,6.20
2018-03-30T17:19:52.029Z,5.20
2018-03-30T17:22:20.274Z,6.10
2018-03-30T17:24:48.257Z,5.83
2018-03-30T17:27:16.183Z,5.97
2018-03-30T17:29:44.136Z,5.47
2018-03-30T17:32:12.134Z,5.20
2018-03-30T17:34:40.236Z,5.17
2018-03-30T17:37:08.355Z,5.83
2018-03-30T17:39:36.619Z,5.07
2018-03-30T17:42:04.492Z,4.00
2018-03-30T17:44:32.483Z,5.00
2018-03-30T17:47:00.492Z,4.43
2018-03-30T17:49:28.455Z,4.30
2018-03-30T17:51:56.482Z,4.37
2018-03-30T17:54:25.318Z,4.97
2018-03-30T17:56:53.332Z,5.67
2018-03-30T17:59:23.993Z,5.53
2018-03-30T18:01:56.817Z,6.40
2018-03-30T18:04:24.905Z,5.60
2018-03-30T18:06:55.653Z,5.80
2018-03-30T18:09:23.950Z,5.40
2018-03-30T18:11:52.166Z,6.03
2018-03-30T18:14:20.322Z,5.77
2018-03-30T18:16:48.414Z,5.40
2018-03-30T18:19:16.491Z,6.17
2018-03-30T18:21:44.385Z,5.40
2018-03-30T18:24:12.302Z,6.60
2018-03-30T18:26:40.490Z,7.07
2018-03-30T18:29:08.533Z,6.87
2018-03-30T18:31:36.413Z,6.20
2018-03-30T18:34:04.503Z,6.20
2018-03-30T18:36:32.436Z,43.67
2018-03-30T18:39:00.959Z,35.63
2018-03-30T18:41:29.058Z,7.03
2018-03-30T18:43:56.953Z,6.90
2018-03-30T18:46:25.051Z,6.60
2018-03-30T18:48:53.234Z,14.13
2018-03-30T18:51:21.203Z,7.47
2018-03-30T18:53:49.116Z,6.83
2018-03-30T18:56:17.023Z,7.07
2018-03-30T18:58:44.894Z,6.70
2018-03-30T19:01:12.775Z,7.47
2018-03-30T19:03:40.551Z,6.23
2018-03-30T19:06:08.336Z,7.43
2018-03-30T19:08:36.114Z,8.47
2018-03-30T19:11:03.938Z,8.73
2018-03-30T19:13:31.727Z,7.53
2018-03-30T19:15:59.540Z,8.53
2018-03-30T19:18:27.323Z,9.47
2018-03-30T19:20:55.095Z,8.80
2018-03-30T19:23:22.929Z,14.67
2018-03-30T19:25:50.695Z,9.87
2018-03-30T19:28:18.557Z,9.77
2018-03-30T19:30:46.324Z,10.43
2018-03-30T19:33:14.111Z,11.43
2018-03-30T19:35:42.042Z,11.43
2018-03-30T19:38:09.872Z,10.20
2018-03-30T19:40:37.655Z,12.20
2018-03-30T19:43:05.472Z,11.33
2018-03-30T19:45:33.268Z,11.30
2018-03-30T19:48:01.081Z,14.77
2018-03-30T19:50:28.869Z,12.70
2018-03-30T19:52:56.865Z,15.80
2018-03-30T19:55:24.737Z,12.33
2018-03-30T19:57:52.570Z,13.97
2018-03-30T20:00:20.382Z,10.47
2018-03-30T20:02:48.206Z,11.23
2018-03-30T20:05:16.032Z,12.40
2018-03-30T20:07:43.809Z,11.90
2018-03-30T20:10:11.592Z,11.43
2018-03-30T20:12:39.444Z,11.37
2018-03-30T20:15:07.224Z,11.70
2018-03-30T20:17:35.069Z,11.07
2018-03-30T20:20:02.924Z,11.40
2018-03-30T20:22:30.769Z,12.13
2018-03-30T20:24:58.622Z,10.97
2018-03-30T20:27:26.499Z,11.40
2018-03-30T20:29:54.482Z,11.80
2018-03-30T20:32:22.267Z,11.93
2018-03-30T20:34:50.076Z,11.60
2018-03-30T20:37:17.873Z,12.50
2018-03-30T20:39:45.757Z,10.77
2018-03-30T20:42:13.569Z,14.17
2018-03-30T20:44:41.362Z,12.60
2018-03-30T20:47:09.131Z,13.03
2018-03-30T20:49:37.009Z,14.03
2018-03-30T20:52:04.798Z,14.30
2018-03-30T20:54:32.724Z,14.17
2018-03-30T20:57:00.514Z,14.10
2018-03-30T20:59:28.362Z,14.97
2018-03-30T21:01:56.163Z,15.40
2018-03-30T21:04:24.038Z,14.93
2018-03-30T21:06:51.840Z,15.27
2018-03-30T21:09:19.792Z,13.97
2018-03-30T21:11:47.569Z,15.23
2018-03-30T21:14:15.354Z,13.93
2018-03-30T21:16:43.207Z,13.90
2018-03-30T21:19:11.021Z,12.47
2018-03-30T21:21:38.893Z,13.13
2018-03-30T21:24:06.721Z,12.90
2018-03-30T21:26:34.519Z,13.37
2018-03-30T21:29:02.335Z,13.63
2018-03-30T21:31:30.247Z,13.30
2018-03-30T21:33:58.056Z,12.97
2018-03-30T21:36:25.955Z,14.30
2018-03-30T21:38:53.751Z,14.23
2018-03-30T21:41:21.622Z,14.50
2018-03-30T21:43:49.366Z,14.80
2018-03-30T21:46:17.160Z,13.87
2018-03-30T21:48:44.949Z,14.57
2018-03-30T21:51:12.829Z,14.80
2018-03-30T21:53:40.708Z,14.10
2018-03-30T21:56:08.500Z,17.03
2018-03-30T21:58:36.290Z,16.10
2018-03-30T22:01:04.100Z,15.50
2018-03-30T22:03:31.885Z,15.93
2018-03-30T22:05:59.834Z,15.87
2018-03-30T22:08:27.645Z,16.40
2018-03-30T22:10:55.587Z,14.90
2018-03-30T22:13:23.354Z,15.50
2018-03-30T22:15:51.152Z,15.77
2018-03-30T22:18:18.936Z,17.10
2018-03-30T22:20:46.836Z,15.67
2018-03-30T22:23:14.675Z,16.57
2018-03-30T22:25:42.600Z,17.10
2018-03-30T22:28:10.481Z,15.63
2018-03-30T22:30:38.319Z,16.67
2018-03-30T22:33:06.151Z,17.70
2018-03-30T22:35:33.918Z,16.73
2018-03-30T22:38:01.810Z,18.30
2018-03-30T22:40:29.610Z,17.67
2018-03-30T22:42:57.450Z,16.60
2018-03-30T22:45:25.286Z,18.63
2018-03-30T22:47:53.157Z,18.40
2018-03-30T22:50:21.005Z,16.43
2018-03-30T22:52:48.944Z,16.83
2018-03-30T22:55:16.758Z,17.87
2018-03-30T22:57:44.649Z,18.27
2018-03-30T23:00:12.429Z,16.97
2018-03-30T23:02:40.229Z,18.07
2018-03-30T23:05:08.026Z,17.00
2018-03-30T23:07:35.819Z,17.10
2018-03-30T23:10:03.610Z,17.90
2018-03-30T23:12:31.432Z,17.10
2018-03-30T23:14:59.234Z,16.00
2018-03-30T23:17:27.114Z,18.17
2018-03-30T23:19:56.887Z,16.80
2018-03-30T23:22:24.671Z,16.77
2018-03-30T23:24:52.526Z,16.60
2018-03-30T23:27:20.428Z,16.33
2018-03-30T23:29:48.238Z,17.27
2018-03-30T23:32:16.028Z,19.30
2018-03-30T23:34:43.840Z,16.77
2018-03-30T23:37:11.609Z,17.03
2018-03-30T23:39:39.486Z,18.77
2018-03-30T23:42:07.248Z,17.33
2018-03-30T23:44:35.039Z,20.43
2018-03-30T23:47:02.962Z,18.33
2018-03-30T23:49:30.743Z,18.70
2018-03-30T23:51:58.562Z,17.90
2018-03-30T23:54:26.355Z,16.90
2018-03-30T23:56:54.115Z,17.77
2018-03-30T23:59:21.896Z,18.40
